Salacak — 3FBM4 — position and weather

sailwx.info

Track history (hours):
 
Tides and Currents Weather Stations Pressure Air Temp Water Temp Dewpoint Dewpoint Depression Visibility Wind Speed Wind Dir Waves Ship Positions

Salacak

Last reported at 2016-Jul-26 21:32 UTC. Time now 2016-Jul-26 21:48 UTC.
Position N 44°06' E 039°04'.

Length 126 m; draft 5.6 m.

Type: Cargo ship. MMSI: 373532000.

Date/timePositionNaut miles runAvg speedWind from/ knotsBaromVisibWave heightAir tempDewpointWater temp
2016-Jul-26 21:32N 44°06' E 039°04'0 0.0
2016-Jul-26 20:32N 44°06' E 039°04'0 0.0
2016-Jul-26 19:32N 44°06' E 039°04'0 0.0
2016-Jul-26 18:32N 44°06' E 039°04'0 0.0
2016-Jul-26 17:32N 44°06' E 039°04'0 0.0
2016-Jul-26 16:32N 44°06' E 039°04'0 0.0
2016-Jul-26 15:32N 44°06' E 039°04'0 0.0
2016-Jul-26 14:32N 44°06' E 039°04'0 0.0
2016-Jul-26 13:32N 44°06' E 039°04'0 0.0
2016-Jul-26 12:32N 44°06' E 039°04'0 0.0
2016-Jul-26 11:32N 44°06' E 039°04'0 0.0
2016-Jul-26 10:28N 44°06' E 039°04'0 0.0
2016-Jul-26 09:31N 44°06' E 039°04'0 0.0
2016-Jul-26 08:31N 44°06' E 039°04'0 0.0
2016-Jul-26 07:31N 44°06' E 039°04'0 0.0
2016-Jul-26 06:31N 44°06' E 039°04'0 0.0
2016-Jul-26 05:31N 44°06' E 039°04'0 0.0
2016-Jul-26 04:31N 44°06' E 039°04'0 0.0
2016-Jul-26 03:31N 44°06' E 039°04'0 0.0
2016-Jul-26 02:28N 44°06' E 039°04'0 0.0
2016-Jul-26 01:31N 44°06' E 039°04'0 0.0
2016-Jul-26 00:31N 44°06' E 039°04'0 0.0
2016-Jul-25 23:31N 44°06' E 039°04'0 0.0
2016-Jul-25 22:31N 44°06' E 039°04'0 0.0
2016-Jul-25 21:31N 44°06' E 039°04'0 0.0
2016-Jul-25 20:31N 44°06' E 039°04'0 0.0
2016-Jul-25 19:31N 44°06' E 039°04'0 0.0
2016-Jul-25 18:28N 44°06' E 039°04'0 0.0
2016-Jul-25 17:31N 44°06' E 039°04'0 0.0
2016-Jul-25 16:31N 44°06' E 039°04'0 0.0
2016-Jul-25 15:31N 44°06' E 039°04'0 0.0
2016-Jul-25 14:31N 44°06' E 039°04'0 0.0
2016-Jul-25 13:31N 44°06' E 039°04'0 0.0
2016-Jul-25 12:31N 44°06' E 039°04'0 0.0
2016-Jul-25 11:31N 44°06' E 039°04'0 0.0
2016-Jul-25 10:28N 44°06' E 039°04'0 0.0
2016-Jul-25 09:31N 44°06' E 039°04'0 0.0
2016-Jul-25 08:31N 44°06' E 039°04'0 0.0
2016-Jul-25 07:31N 44°06' E 039°04'0 0.0
2016-Jul-25 06:31N 44°06' E 039°04'0 0.0
2016-Jul-25 05:28N 44°06' E 039°04'0 0.0
2016-Jul-25 04:31N 44°06' E 039°04'0 0.0
2016-Jul-25 03:31N 44°06' E 039°04'0 0.0
2016-Jul-25 02:34N 44°06' E 039°04'0 0.0
2016-Jul-25 01:33N 44°06' E 039°04'0 0.0
2016-Jul-25 00:33N 44°06' E 039°04'0 0.0
2016-Jul-24 23:33N 44°06' E 039°04'0 0.0
2016-Jul-24 22:33N 44°06' E 039°04'0 0.0
2016-Jul-24 21:33N 44°06' E 039°04'2 1.7
2016-Jul-24 20:33N 44°04' E 039°04'6 5.8
2016-Jul-24 19:33N 43°60' E 038°58'1110.7
2016-Jul-24 18:30N 43°54' E 038°45'  
2016-Jul-21 01:31N 39°46' E 024°54'3210.9
2016-Jul-20 22:32N 39°50' E 024°12'6510.8
2016-Jul-20 16:29N 40°17' E 022°54'1111.2
2016-Jul-20 15:33N 40°26' E 022°46'9 8.9
2016-Jul-20 14:33N 40°33' E 022°51'6 5.6
2016-Jul-20 13:33N 40°38' E 022°55'0 0.0
2016-Jul-20 12:33N 40°38' E 022°55'0 0.0
2016-Jul-20 11:33N 40°38' E 022°55'0 0.0
2016-Jul-20 10:33N 40°38' E 022°55'0 0.0
2016-Jul-20 09:33N 40°38' E 022°55'0 0.0
2016-Jul-20 08:33N 40°38' E 022°55'0 0.0
2016-Jul-20 07:33N 40°38' E 022°55'0 0.0
2016-Jul-20 06:34N 40°38' E 022°55'0 0.0
2016-Jul-20 05:34N 40°38' E 022°55'0 0.0
2016-Jul-20 04:34N 40°38' E 022°55'0 0.0
2016-Jul-20 03:33N 40°38' E 022°55'0 0.0
2016-Jul-20 02:33N 40°38' E 022°55'0 0.0
2016-Jul-20 01:33N 40°38' E 022°55'0 0.0
2016-Jul-20 00:33N 40°38' E 022°55'0 0.0
2016-Jul-19 23:33N 40°38' E 022°55'0 0.0
2016-Jul-19 22:33N 40°38' E 022°55'0 0.0
2016-Jul-19 21:33N 40°38' E 022°55'0 0.0
2016-Jul-19 20:34N 40°38' E 022°55'0 0.0
2016-Jul-19 19:34N 40°38' E 022°55'0 0.0
2016-Jul-19 18:34N 40°38' E 022°55'0 0.0
2016-Jul-19 17:33N 40°38' E 022°55'0 0.0
2016-Jul-19 16:33N 40°38' E 022°55'0 0.0
2016-Jul-19 15:33N 40°38' E 022°55'0 0.0
2016-Jul-19 14:33N 40°38' E 022°55'0 0.0
2016-Jul-19 13:33N 40°38' E 022°55'0 0.0
2016-Jul-19 12:33N 40°38' E 022°55'0 0.0
2016-Jul-19 11:33N 40°38' E 022°55'0 0.0
2016-Jul-19 10:33N 40°38' E 022°55'0 0.0
2016-Jul-19 09:33N 40°38' E 022°55'0 0.0
2016-Jul-19 08:33N 40°38' E 022°55'0 0.0
2016-Jul-19 07:33N 40°38' E 022°55'1 0.2
2016-Jul-19 04:34N 40°38' E 022°56'1 1.3
2016-Jul-19 03:34N 40°36' E 022°55'0 0.0
2016-Jul-19 02:33N 40°36' E 022°56'0 0.0
2016-Jul-19 01:33N 40°36' E 022°55'0 0.0
2016-Jul-19 00:33N 40°36' E 022°55'0 0.0
2016-Jul-18 23:33N 40°36' E 022°55'0 0.0
2016-Jul-18 22:33N 40°36' E 022°55'0 0.0
2016-Jul-18 21:33N 40°36' E 022°55'5 4.6
2016-Jul-18 20:33N 40°33' E 022°51'9 9.4
2016-Jul-18 19:33N 40°24' E 022°46'144 8.4
2016-Jul-18 02:18N 38°24' E 024°29'2810.2
2016-Jul-17 23:34N 37°57' E 024°39'1212.1
2016-Jul-17 22:33N 37°45' E 024°34'2511.6
2016-Jul-17 20:25N 37°24' E 024°17'1011.5
2016-Jul-17 19:33N 37°17' E 024°09'1210.9
2016-Jul-17 18:26N 37°08' E 023°60'6 6.7
2016-Jul-17 17:33N 37°03' E 023°55'0 0.2
2016-Jul-17 16:34N 37°03' E 023°55'1 0.7
2016-Jul-17 15:34N 37°02' E 023°55'4 3.8
2016-Jul-17 14:32N 36°59' E 023°52'  
Track history (hours):
 
Tides and Currents Weather Stations Pressure Air Temp Water Temp Dewpoint Dewpoint Depression Visibility Wind Speed Wind Dir Waves Ship Positions

Salacak

Last reported at 2016-Jul-26 21:32 UTC. Time now 2016-Jul-26 21:48 UTC.
Position N 44°06' E 039°04'.

Length 126 m; draft 5.6 m.

Type: Cargo ship. MMSI: 373532000.

Date/timePositionNaut miles runAvg speedWind from/ knotsBaromVisibWave heightAir tempDewpointWater temp
2016-Jul-26 21:32N 44°06' E 039°04'0 0.0
2016-Jul-26 20:32N 44°06' E 039°04'0 0.0
2016-Jul-26 19:32N 44°06' E 039°04'0 0.0
2016-Jul-26 18:32N 44°06' E 039°04'0 0.0
2016-Jul-26 17:32N 44°06' E 039°04'0 0.0
2016-Jul-26 16:32N 44°06' E 039°04'0 0.0
2016-Jul-26 15:32N 44°06' E 039°04'0 0.0
2016-Jul-26 14:32N 44°06' E 039°04'0 0.0
2016-Jul-26 13:32N 44°06' E 039°04'0 0.0
2016-Jul-26 12:32N 44°06' E 039°04'0 0.0
2016-Jul-26 11:32N 44°06' E 039°04'0 0.0
2016-Jul-26 10:28N 44°06' E 039°04'0 0.0
2016-Jul-26 09:31N 44°06' E 039°04'0 0.0
2016-Jul-26 08:31N 44°06' E 039°04'0 0.0
2016-Jul-26 07:31N 44°06' E 039°04'0 0.0
2016-Jul-26 06:31N 44°06' E 039°04'0 0.0
2016-Jul-26 05:31N 44°06' E 039°04'0 0.0
2016-Jul-26 04:31N 44°06' E 039°04'0 0.0
2016-Jul-26 03:31N 44°06' E 039°04'0 0.0
2016-Jul-26 02:28N 44°06' E 039°04'0 0.0
2016-Jul-26 01:31N 44°06' E 039°04'0 0.0
2016-Jul-26 00:31N 44°06' E 039°04'0 0.0
2016-Jul-25 23:31N 44°06' E 039°04'0 0.0
2016-Jul-25 22:31N 44°06' E 039°04'0 0.0
2016-Jul-25 21:31N 44°06' E 039°04'0 0.0
2016-Jul-25 20:31N 44°06' E 039°04'0 0.0
2016-Jul-25 19:31N 44°06' E 039°04'0 0.0
2016-Jul-25 18:28N 44°06' E 039°04'0 0.0
2016-Jul-25 17:31N 44°06' E 039°04'0 0.0
2016-Jul-25 16:31N 44°06' E 039°04'0 0.0
2016-Jul-25 15:31N 44°06' E 039°04'0 0.0
2016-Jul-25 14:31N 44°06' E 039°04'0 0.0
2016-Jul-25 13:31N 44°06' E 039°04'0 0.0
2016-Jul-25 12:31N 44°06' E 039°04'0 0.0
2016-Jul-25 11:31N 44°06' E 039°04'0 0.0
2016-Jul-25 10:28N 44°06' E 039°04'0 0.0
2016-Jul-25 09:31N 44°06' E 039°04'0 0.0
2016-Jul-25 08:31N 44°06' E 039°04'0 0.0
2016-Jul-25 07:31N 44°06' E 039°04'0 0.0
2016-Jul-25 06:31N 44°06' E 039°04'0 0.0
2016-Jul-25 05:28N 44°06' E 039°04'0 0.0
2016-Jul-25 04:31N 44°06' E 039°04'0 0.0
2016-Jul-25 03:31N 44°06' E 039°04'0 0.0
2016-Jul-25 02:34N 44°06' E 039°04'0 0.0
2016-Jul-25 01:33N 44°06' E 039°04'0 0.0
2016-Jul-25 00:33N 44°06' E 039°04'0 0.0
2016-Jul-24 23:33N 44°06' E 039°04'0 0.0
2016-Jul-24 22:33N 44°06' E 039°04'0 0.0
2016-Jul-24 21:33N 44°06' E 039°04'2 1.7
2016-Jul-24 20:33N 44°04' E 039°04'6 5.8
2016-Jul-24 19:33N 43°60' E 038°58'1110.7
2016-Jul-24 18:30N 43°54' E 038°45'  
2016-Jul-21 01:31N 39°46' E 024°54'3210.9
2016-Jul-20 22:32N 39°50' E 024°12'6510.8
2016-Jul-20 16:29N 40°17' E 022°54'1111.2
2016-Jul-20 15:33N 40°26' E 022°46'9 8.9
2016-Jul-20 14:33N 40°33' E 022°51'6 5.6
2016-Jul-20 13:33N 40°38' E 022°55'0 0.0
2016-Jul-20 12:33N 40°38' E 022°55'0 0.0
2016-Jul-20 11:33N 40°38' E 022°55'0 0.0
2016-Jul-20 10:33N 40°38' E 022°55'0 0.0
2016-Jul-20 09:33N 40°38' E 022°55'0 0.0
2016-Jul-20 08:33N 40°38' E 022°55'0 0.0
2016-Jul-20 07:33N 40°38' E 022°55'0 0.0
2016-Jul-20 06:34N 40°38' E 022°55'0 0.0
2016-Jul-20 05:34N 40°38' E 022°55'0 0.0
2016-Jul-20 04:34N 40°38' E 022°55'0 0.0
2016-Jul-20 03:33N 40°38' E 022°55'0 0.0
2016-Jul-20 02:33N 40°38' E 022°55'0 0.0
2016-Jul-20 01:33N 40°38' E 022°55'0 0.0
2016-Jul-20 00:33N 40°38' E 022°55'0 0.0
2016-Jul-19 23:33N 40°38' E 022°55'0 0.0
2016-Jul-19 22:33N 40°38' E 022°55'0 0.0
2016-Jul-19 21:33N 40°38' E 022°55'0 0.0
2016-Jul-19 20:34N 40°38' E 022°55'0 0.0
2016-Jul-19 19:34N 40°38' E 022°55'0 0.0
2016-Jul-19 18:34N 40°38' E 022°55'0 0.0
2016-Jul-19 17:33N 40°38' E 022°55'0 0.0
2016-Jul-19 16:33N 40°38' E 022°55'0 0.0
2016-Jul-19 15:33N 40°38' E 022°55'0 0.0
2016-Jul-19 14:33N 40°38' E 022°55'0 0.0
2016-Jul-19 13:33N 40°38' E 022°55'0 0.0
2016-Jul-19 12:33N 40°38' E 022°55'0 0.0
2016-Jul-19 11:33N 40°38' E 022°55'0 0.0
2016-Jul-19 10:33N 40°38' E 022°55'0 0.0
2016-Jul-19 09:33N 40°38' E 022°55'0 0.0
2016-Jul-19 08:33N 40°38' E 022°55'0 0.0
2016-Jul-19 07:33N 40°38' E 022°55'1 0.2
2016-Jul-19 04:34N 40°38' E 022°56'1 1.3
2016-Jul-19 03:34N 40°36' E 022°55'0 0.0
2016-Jul-19 02:33N 40°36' E 022°56'0 0.0
2016-Jul-19 01:33N 40°36' E 022°55'0 0.0
2016-Jul-19 00:33N 40°36' E 022°55'0 0.0
2016-Jul-18 23:33N 40°36' E 022°55'0 0.0
2016-Jul-18 22:33N 40°36' E 022°55'0 0.0
2016-Jul-18 21:33N 40°36' E 022°55'5 4.6
2016-Jul-18 20:33N 40°33' E 022°51'9 9.4
2016-Jul-18 19:33N 40°24' E 022°46'144 8.4
2016-Jul-18 02:18N 38°24' E 024°29'2810.2
2016-Jul-17 23:34N 37°57' E 024°39'1212.1
2016-Jul-17 22:33N 37°45' E 024°34'2511.6
2016-Jul-17 20:25N 37°24' E 024°17'1011.5
2016-Jul-17 19:33N 37°17' E 024°09'1210.9
2016-Jul-17 18:26N 37°08' E 023°60'6 6.7
2016-Jul-17 17:33N 37°03' E 023°55'0 0.2
2016-Jul-17 16:34N 37°03' E 023°55'1 0.7
2016-Jul-17 15:34N 37°02' E 023°55'4 3.8
2016-Jul-17 14:32N 36°59' E 023°52'  

Dump ship's entire track history